Košice

rXD
Cestující First Class
Cestující First Class
Příspěvky: 666
Registrován: 26. 07. 2011, 00:48
Bydliště: Košice
Kontaktovat uživatele:
Status: Offline

Re: Košice

Příspěvekod rXD » 27. 11. 2018, 15:24

johny773 píše:Existuje nejaka reálna stopa toho, že slovenská vláda naozaj dotuje linku CSA aby lietali cez BTS ?


Podla https://www.facebook.com/LietameZKosic/ ... 8141717932 by sa o tom malo dat docitat nieco napr. v sprave o hosp.vysledkoch CSA napr. za 2013. Ta sprava bola povodne zverejnena tu http://www.csa.cz/downloads/VH_2014-06- ... ka-pdf.pdf , ale uz tam nie je.

Co sa tyka Faba, tak iste je pekne, ze mame historicku linku BTS-PRG. A stratova je (vid Ersek), cize otazka vlastne je uz len to, ci tu stratu pokryva CSA alebo BTS/SR.


johny773
Cestující Economy (low-cost)
Cestující Economy (low-cost)
Příspěvky: 22
Registrován: 14. 06. 2018, 17:18
Status: Offline

Re: Košice

Příspěvekod johny773 » 05. 12. 2018, 21:46

Neviete niekto prečo 04/12 OK972 divert na TAT?

Následne OK973 z TAT - PRG.

btw rXD mohol si sa ísť previesť tým tvojim busom cez čertovicu .. :crazy:


rXD píše:Hej, bola to zabava. Austrian vyslal ludi do Kosic busom cez Certovicu :-).



Screenshot 2018-12-05 at 21.24.05.png
Screenshot 2018-12-05 at 21.24.05.png (567.63 KiB) Zobrazeno 390 x

Fabo
Kapitán
Kapitán
Příspěvky: 2471
Registrován: 04. 01. 2007, 13:42
Bydliště: HAG
Kontaktovat uživatele:
Status: Offline

Re: Košice

Příspěvekod Fabo » 05. 12. 2018, 22:41

Zrejme hmla:

METAR LZKZ 041300Z 13003KT 0100 R01/0225N FG OVC001 02/02 Q1012 NOSIG=

(meteo Kosice, 04 dna v mesiaci, 13:00 UTC, vietor 130° 3 uzly, viditelnost 100 metrov, drahova viditelnost na drahe 01 225 metrov, nemeni sa, hmla, zamracene v 100 stopach, teplota 2°C, rosny bod 2°C, tlak 1012 hPa, zmena neocakavana)

V zime je (relativne) bezna situacia, ze v Kosiciach aj inde je hnusne, ale v Poprade je vdaka nadmorskej vyske pekne.

METAR LZTT 041300Z 26014KT 9999 FEW011 BKN020 07/04 Q1010 NOSIG=

jencik
Cestující First Class
Cestující First Class
Příspěvky: 535
Registrován: 23. 03. 2014, 15:03
Bydliště: KSC,PRG
Status: Offline

Re: Košice

Příspěvekod jencik » 07. 12. 2018, 12:49

Tak Poprad je iba 680 mnm, to na inverziu stačiť nebude. V Košiciach stačí trochu silnejšia hmla a hneď letisko neprijíma, keďže v zime zase nie je toľko letov, tak je tých pár divertov či zrušených letov každému sumak.



Zpět na “Evropská letiště”


Kdo je online

Uživatelé prohlížející si toto fórum: Žádní registrovaní uživatelé a 4 hosti